createdAt,value
2022-08-29T00:00:23.394Z,9.00
2022-08-29T00:03:08.915Z,8.30
2022-08-29T00:05:40.024Z,8.60
2022-08-29T00:08:10.531Z,8.20
2022-08-29T00:10:39.577Z,11.40
2022-08-29T00:13:10.200Z,11.40
2022-08-29T00:15:42.075Z,9.70
2022-08-29T00:18:16.761Z,8.10
2022-08-29T00:20:46.438Z,6.90
2022-08-29T00:23:15.002Z,7.40
2022-08-29T00:25:43.531Z,9.40
2022-08-29T00:28:12.604Z,8.50
2022-08-29T00:30:41.832Z,8.80
2022-08-29T00:33:10.521Z,10.30
2022-08-29T00:35:41.551Z,8.70
2022-08-29T00:38:13.137Z,9.10
2022-08-29T00:40:50.363Z,10.00
2022-08-29T00:43:24.057Z,9.80
2022-08-29T00:46:05.481Z,10.70
2022-08-29T00:48:36.106Z,8.10
2022-08-29T00:51:08.069Z,8.90
2022-08-29T00:53:47.732Z,10.10
2022-08-29T00:56:18.043Z,8.90
2022-08-29T00:58:50.104Z,12.00
2022-08-29T01:01:19.392Z,8.90
2022-08-29T01:03:49.051Z,10.30
2022-08-29T01:06:18.058Z,11.10
2022-08-29T01:08:47.211Z,9.40
2022-08-29T01:11:36.588Z,10.70
2022-08-29T01:14:05.957Z,11.00
2022-08-29T01:16:36.613Z,11.20
2022-08-29T01:19:13.456Z,10.20
2022-08-29T01:21:50.041Z,11.70
2022-08-29T01:24:37.364Z,11.70
2022-08-29T01:27:06.874Z,10.10
2022-08-29T01:29:35.820Z,12.60
2022-08-29T01:32:05.190Z,15.20
2022-08-29T01:34:33.684Z,11.50
2022-08-29T01:37:04.292Z,14.30
2022-08-29T01:39:34.495Z,12.30
2022-08-29T01:42:05.753Z,16.00
2022-08-29T01:44:34.177Z,15.40
2022-08-29T01:47:03.820Z,12.30
2022-08-29T01:49:34.364Z,14.70
2022-08-29T01:52:05.296Z,12.10
2022-08-29T01:54:34.013Z,14.90
2022-08-29T01:57:02.648Z,12.10
2022-08-29T01:59:32.636Z,10.60
2022-08-29T02:02:05.648Z,17.30
2022-08-29T02:04:34.755Z,13.70
2022-08-29T02:07:04.280Z,14.70
2022-08-29T02:09:32.784Z,14.70
2022-08-29T02:12:06.229Z,13.00
2022-08-29T02:14:36.557Z,14.10
2022-08-29T02:17:06.839Z,17.30
2022-08-29T02:19:37.455Z,14.80
2022-08-29T02:22:07.733Z,14.00
2022-08-29T02:24:36.248Z,10.50
2022-08-29T02:27:05.058Z,14.30
2022-08-29T02:29:37.641Z,10.60
2022-08-29T02:32:11.318Z,18.60
2022-08-29T02:34:42.052Z,11.20
2022-08-29T02:37:13.879Z,14.00
2022-08-29T02:39:42.353Z,9.40
2022-08-29T02:42:10.807Z,10.10
2022-08-29T02:44:39.565Z,13.50
2022-08-29T02:47:08.716Z,8.60
2022-08-29T02:49:38.484Z,9.10
2022-08-29T02:52:08.249Z,16.00
2022-08-29T02:54:36.733Z,10.60
2022-08-29T02:57:06.232Z,12.20
2022-08-29T02:59:35.031Z,14.50
2022-08-29T03:02:04.244Z,11.80
2022-08-29T03:04:32.778Z,10.60
2022-08-29T03:07:01.306Z,11.70
2022-08-29T03:09:29.693Z,15.50
2022-08-29T03:11:58.173Z,9.80
2022-08-29T03:14:26.662Z,12.60
2022-08-29T03:16:55.070Z,11.40
2022-08-29T03:19:23.517Z,18.00
2022-08-29T03:21:52.458Z,10.60
2022-08-29T03:24:24.991Z,14.70
2022-08-29T03:26:56.668Z,15.20
2022-08-29T03:29:25.917Z,14.50
2022-08-29T03:31:57.606Z,14.10
2022-08-29T03:34:26.811Z,12.00
2022-08-29T03:36:55.962Z,13.40
2022-08-29T03:39:24.715Z,9.20
2022-08-29T03:41:53.116Z,16.00
2022-08-29T03:44:21.970Z,14.70
2022-08-29T03:46:50.488Z,12.10
2022-08-29T03:49:19.061Z,12.50
2022-08-29T03:51:49.453Z,14.30
2022-08-29T03:54:18.088Z,12.50
2022-08-29T03:56:47.007Z,12.60
2022-08-29T03:59:16.880Z,13.10
2022-08-29T04:01:47.740Z,14.30
2022-08-29T04:04:31.625Z,14.60
2022-08-29T04:07:01.123Z,16.40
2022-08-29T04:09:30.363Z,13.20
2022-08-29T04:11:59.746Z,14.60
2022-08-29T04:14:29.007Z,15.10
2022-08-29T04:16:57.808Z,14.80
2022-08-29T04:19:26.523Z,10.60
2022-08-29T04:21:56.522Z,16.20
2022-08-29T04:24:25.125Z,15.30
2022-08-29T04:26:53.575Z,11.50
2022-08-29T04:29:22.059Z,12.10
2022-08-29T04:31:50.864Z,14.20
2022-08-29T04:34:20.597Z,17.30
2022-08-29T04:36:49.065Z,16.90
2022-08-29T04:39:18.240Z,11.50
2022-08-29T04:41:46.851Z,20.60
2022-08-29T04:44:15.299Z,12.90
2022-08-29T04:46:43.813Z,15.10
2022-08-29T04:49:12.846Z,16.30
2022-08-29T04:51:41.422Z,21.00
2022-08-29T04:54:09.876Z,11.90
2022-08-29T04:56:43.150Z,14.40
2022-08-29T04:59:16.527Z,10.80
2022-08-29T05:01:45.728Z,14.80
2022-08-29T05:04:14.745Z,18.70
2022-08-29T05:06:43.499Z,12.40
2022-08-29T05:09:11.943Z,15.60
2022-08-29T05:11:40.913Z,14.10
2022-08-29T05:14:10.276Z,15.40
2022-08-29T05:16:38.914Z,16.60
2022-08-29T05:19:09.637Z,18.40
2022-08-29T05:21:39.935Z,15.40
2022-08-29T05:24:11.620Z,14.20
2022-08-29T05:26:44.123Z,12.00
2022-08-29T05:29:14.022Z,15.10
2022-08-29T05:31:45.316Z,16.00
2022-08-29T05:34:34.239Z,17.00
2022-08-29T05:37:05.805Z,15.70
2022-08-29T05:39:36.402Z,11.30
2022-08-29T05:42:06.852Z,11.60
2022-08-29T05:44:36.165Z,14.60
2022-08-29T05:47:06.587Z,15.60
2022-08-29T05:49:36.878Z,15.60
2022-08-29T05:52:06.708Z,12.60
2022-08-29T05:54:37.377Z,14.50
2022-08-29T05:57:07.302Z,20.80
2022-08-29T05:59:36.477Z,18.90
2022-08-29T06:02:09.187Z,18.80
2022-08-29T06:04:38.669Z,14.10
2022-08-29T06:07:08.078Z,13.50
2022-08-29T06:09:38.920Z,18.40
2022-08-29T06:12:09.706Z,14.30
2022-08-29T06:14:38.314Z,14.00
2022-08-29T06:17:09.157Z,14.40
2022-08-29T06:19:38.963Z,22.30
2022-08-29T06:22:10.265Z,14.60
2022-08-29T06:24:39.690Z,17.30
2022-08-29T06:27:08.228Z,12.30
2022-08-29T06:29:43.531Z,19.00
2022-08-29T06:32:13.622Z,12.00
2022-08-29T06:34:42.035Z,14.70
2022-08-29T06:37:10.491Z,15.40
2022-08-29T06:39:39.560Z,13.20
2022-08-29T06:42:08.126Z,20.80
2022-08-29T06:44:44.266Z,14.30
2022-08-29T06:47:13.176Z,14.80
2022-08-29T06:49:41.991Z,17.20
2022-08-29T06:52:10.710Z,14.20
2022-08-29T06:54:39.148Z,19.50
2022-08-29T06:57:10.105Z,14.20
2022-08-29T06:59:38.502Z,12.50
2022-08-29T07:02:07.043Z,15.70
2022-08-29T07:04:35.953Z,16.40
2022-08-29T07:07:04.952Z,16.30
2022-08-29T07:09:33.325Z,14.90
2022-08-29T07:12:02.360Z,12.80
2022-08-29T07:14:30.765Z,13.70
2022-08-29T07:17:00.147Z,13.90
2022-08-29T07:19:28.624Z,13.40
2022-08-29T07:21:59.646Z,18.40
2022-08-29T07:24:28.467Z,12.90
2022-08-29T07:26:56.863Z,15.20
2022-08-29T07:29:25.526Z,15.30
2022-08-29T07:31:54.883Z,14.80
2022-08-29T07:34:23.476Z,13.20
2022-08-29T07:36:51.932Z,17.60
2022-08-29T07:39:21.553Z,15.20
2022-08-29T07:41:50.115Z,8.60
2022-08-29T07:44:19.301Z,13.90
2022-08-29T07:46:47.781Z,9.90
2022-08-29T07:49:16.288Z,11.50
2022-08-29T07:51:45.021Z,14.00
2022-08-29T07:54:16.034Z,14.20
2022-08-29T07:56:47.015Z,9.10
2022-08-29T07:59:16.551Z,9.90
2022-08-29T08:01:45.274Z,10.30
2022-08-29T08:04:14.189Z,12.40
2022-08-29T08:06:43.643Z,13.60
2022-08-29T08:09:14.684Z,10.20
2022-08-29T08:11:43.641Z,10.00
2022-08-29T08:14:13.274Z,11.30
2022-08-29T08:16:44.179Z,8.20
2022-08-29T08:19:14.157Z,11.20
2022-08-29T08:21:49.593Z,7.40
2022-08-29T08:24:20.428Z,9.80
2022-08-29T08:26:49.033Z,9.30
2022-08-29T08:29:18.406Z,10.70
2022-08-29T08:31:49.252Z,9.60
2022-08-29T08:34:18.756Z,10.20
2022-08-29T08:36:47.298Z,8.20
2022-08-29T08:39:16.299Z,9.40
2022-08-29T08:41:52.087Z,10.50
2022-08-29T08:44:55.895Z,6.90
2022-08-29T08:47:28.363Z,9.70
2022-08-29T08:50:03.819Z,8.70
2022-08-29T08:52:42.026Z,10.60
2022-08-29T08:55:20.273Z,11.40
2022-08-29T08:57:59.667Z,6.90
2022-08-29T09:00:35.791Z,7.50
2022-08-29T09:03:18.469Z,6.50
2022-08-29T09:06:01.461Z,8.70
2022-08-29T09:08:42.103Z,8.40
2022-08-29T09:11:19.284Z,7.90
2022-08-29T09:13:57.693Z,9.50
2022-08-29T09:16:31.276Z,7.00
2022-08-29T09:19:04.667Z,6.10
2022-08-29T09:21:43.441Z,6.30
2022-08-29T09:24:20.202Z,8.90
2022-08-29T09:26:49.438Z,7.60
2022-08-29T09:29:20.466Z,8.10
2022-08-29T09:32:06.677Z,8.90
2022-08-29T09:35:04.465Z,10.50
2022-08-29T09:37:30.600Z,7.80
2022-08-29T09:40:03.849Z,10.20
2022-08-29T09:42:35.503Z,8.60
2022-08-29T09:45:15.952Z,9.90
2022-08-29T09:47:45.208Z,8.70
2022-08-29T09:50:21.146Z,9.00
2022-08-29T09:52:54.860Z,8.90
2022-08-29T09:55:30.573Z,8.00
2022-08-29T09:58:03.004Z,9.30
2022-08-29T10:00:34.788Z,8.70
2022-08-29T10:03:05.766Z,9.10
2022-08-29T10:05:40.905Z,11.90
2022-08-29T10:08:28.864Z,7.00
2022-08-29T10:11:00.006Z,8.20
2022-08-29T10:13:35.946Z,6.00
2022-08-29T10:16:14.458Z,10.10
2022-08-29T10:18:47.388Z,9.70
2022-08-29T10:21:31.474Z,7.30
2022-08-29T10:24:24.808Z,9.50
2022-08-29T10:27:00.332Z,8.00
2022-08-29T10:29:47.597Z,12.50
2022-08-29T10:32:27.725Z,7.90
2022-08-29T10:35:06.881Z,9.40
2022-08-29T10:37:46.795Z,13.10
2022-08-29T10:40:25.094Z,8.80
2022-08-29T10:43:16.611Z,8.10
2022-08-29T10:45:57.214Z,6.50
2022-08-29T10:48:33.720Z,6.60
2022-08-29T10:51:17.353Z,7.70
2022-08-29T10:53:50.543Z,6.30
2022-08-29T10:56:24.302Z,6.10
2022-08-29T10:59:07.016Z,6.80
2022-08-29T11:01:42.108Z,7.60
2022-08-29T11:04:18.194Z,6.30
2022-08-29T11:06:54.896Z,6.00
2022-08-29T11:09:28.746Z,6.60
2022-08-29T11:12:12.522Z,7.00
2022-08-29T11:14:53.308Z,7.50
2022-08-29T11:17:26.198Z,8.00
2022-08-29T11:20:01.871Z,11.50
2022-08-29T11:22:35.806Z,9.60
2022-08-29T11:25:11.182Z,7.10
2022-08-29T11:27:53.609Z,5.70
2022-08-29T11:30:29.306Z,10.00
2022-08-29T11:33:05.878Z,8.40
2022-08-29T11:35:45.133Z,8.10
2022-08-29T11:38:47.466Z,6.70
2022-08-29T11:41:28.690Z,8.30
2022-08-29T11:44:10.403Z,6.20
2022-08-29T11:46:42.971Z,5.20
2022-08-29T11:49:28.087Z,6.60
2022-08-29T11:52:00.961Z,4.60
2022-08-29T11:55:16.038Z,4.30
2022-08-29T11:58:03.248Z,4.20
2022-08-29T12:00:51.028Z,7.00
2022-08-29T12:03:55.485Z,6.10
2022-08-29T12:06:36.440Z,7.10
2022-08-29T12:09:34.313Z,6.20
2022-08-29T12:12:19.105Z,4.60
2022-08-29T12:14:49.852Z,6.10
2022-08-29T12:18:01.005Z,8.70
2022-08-29T12:20:41.531Z,6.60
2022-08-29T12:23:23.240Z,6.90
2022-08-29T12:26:23.508Z,6.00
2022-08-29T12:28:48.222Z,5.60
2022-08-29T12:31:37.229Z,4.70
2022-08-29T12:34:30.684Z,5.70
2022-08-29T12:37:26.134Z,4.10
2022-08-29T12:40:11.297Z,4.70
2022-08-29T12:42:49.277Z,5.10
2022-08-29T12:45:26.248Z,8.60
2022-08-29T12:47:58.293Z,4.20
2022-08-29T12:50:30.658Z,7.90
2022-08-29T12:53:02.946Z,6.40
2022-08-29T12:55:39.961Z,4.30
2022-08-29T12:58:10.118Z,7.30
2022-08-29T13:00:39.951Z,4.30
2022-08-29T13:03:17.708Z,5.50
2022-08-29T13:05:46.848Z,4.10
2022-08-29T13:08:26.692Z,4.70
2022-08-29T13:10:58.493Z,7.00
2022-08-29T13:13:28.993Z,5.70
2022-08-29T13:16:00.907Z,4.50
2022-08-29T13:18:31.615Z,4.60
2022-08-29T13:21:09.754Z,8.40
2022-08-29T13:23:45.114Z,8.10
2022-08-29T13:26:23.785Z,14.10
2022-08-29T13:28:54.960Z,9.20
2022-08-29T13:31:29.653Z,5.50
2022-08-29T13:34:21.847Z,9.70
2022-08-29T13:37:00.362Z,7.50
2022-08-29T13:39:38.124Z,11.40
2022-08-29T13:42:18.408Z,8.60
2022-08-29T13:45:07.017Z,6.30
2022-08-29T13:47:49.250Z,5.10
2022-08-29T13:50:18.049Z,6.20
2022-08-29T13:52:49.849Z,3.90
2022-08-29T13:55:19.181Z,3.50
2022-08-29T13:57:50.463Z,7.40
2022-08-29T14:00:27.228Z,12.00
2022-08-29T14:03:05.860Z,3.40
2022-08-29T14:05:35.069Z,5.00
2022-08-29T14:08:05.323Z,3.70
2022-08-29T14:10:35.974Z,5.50
2022-08-29T14:13:05.383Z,4.80
2022-08-29T14:15:34.181Z,6.00
2022-08-29T14:18:05.158Z,3.90
2022-08-29T14:20:33.942Z,2.30
2022-08-29T14:23:02.372Z,4.00
2022-08-29T14:25:30.981Z,4.50
2022-08-29T14:27:59.672Z,4.10
2022-08-29T14:30:28.358Z,4.70
2022-08-29T14:32:56.969Z,3.10
2022-08-29T14:35:26.531Z,3.00
2022-08-29T14:38:01.953Z,4.50
2022-08-29T14:40:31.886Z,4.20
2022-08-29T14:43:02.334Z,3.30
2022-08-29T14:45:33.363Z,2.60
2022-08-29T14:48:05.177Z,5.00
2022-08-29T14:50:34.184Z,8.60
2022-08-29T14:53:02.632Z,4.60
2022-08-29T14:55:32.632Z,5.30
2022-08-29T14:58:00.996Z,3.20
2022-08-29T15:00:33.336Z,4.30
2022-08-29T15:03:01.870Z,2.50
2022-08-29T15:05:31.123Z,4.00
2022-08-29T15:08:06.383Z,6.60
2022-08-29T15:10:44.977Z,5.00
2022-08-29T15:13:13.872Z,7.60
2022-08-29T15:15:42.826Z,6.80
2022-08-29T15:18:30.640Z,3.60
2022-08-29T15:21:02.217Z,4.50
2022-08-29T15:23:31.256Z,7.40
2022-08-29T15:26:00.243Z,4.60
2022-08-29T15:28:29.011Z,4.50
2022-08-29T15:30:57.602Z,4.10
2022-08-29T15:33:26.501Z,6.60
2022-08-29T15:35:55.142Z,6.10
2022-08-29T15:38:23.610Z,5.90
2022-08-29T15:40:52.104Z,4.70
2022-08-29T15:43:20.556Z,4.40
2022-08-29T15:45:49.113Z,3.40
2022-08-29T15:48:18.499Z,4.30
2022-08-29T15:50:47.706Z,3.10
2022-08-29T15:53:16.206Z,4.40
2022-08-29T15:55:44.669Z,3.40
2022-08-29T15:58:13.045Z,3.50
2022-08-29T16:00:41.675Z,4.30
2022-08-29T16:03:10.225Z,4.10
2022-08-29T16:05:39.685Z,6.80
2022-08-29T16:08:09.965Z,5.40
2022-08-29T16:10:39.745Z,4.20
2022-08-29T16:13:08.639Z,4.60
2022-08-29T16:15:37.241Z,4.30
2022-08-29T16:18:06.585Z,3.00
2022-08-29T16:20:36.739Z,7.60
2022-08-29T16:23:06.516Z,5.60
2022-08-29T16:25:35.834Z,4.10
2022-08-29T16:28:06.222Z,4.60
2022-08-29T16:30:35.009Z,4.30
2022-08-29T16:33:12.935Z,7.40
2022-08-29T16:35:41.550Z,5.20
2022-08-29T16:38:10.118Z,4.70
2022-08-29T16:40:38.932Z,4.40
2022-08-29T16:43:07.813Z,5.00
2022-08-29T16:45:37.038Z,4.50
2022-08-29T16:48:14.789Z,6.10
2022-08-29T16:50:44.763Z,6.20
2022-08-29T16:53:13.382Z,5.30
2022-08-29T16:55:41.846Z,5.70
2022-08-29T16:58:28.865Z,5.40
2022-08-29T17:00:57.837Z,9.40
2022-08-29T17:03:26.619Z,6.10
2022-08-29T17:05:55.413Z,7.00
2022-08-29T17:08:23.689Z,6.80
2022-08-29T17:10:51.728Z,5.60
2022-08-29T17:13:19.933Z,5.30
2022-08-29T17:15:48.318Z,5.20
2022-08-29T17:18:17.090Z,6.00
2022-08-29T17:20:47.828Z,5.70
2022-08-29T17:23:17.144Z,6.00
2022-08-29T17:25:45.801Z,8.50
2022-08-29T17:28:18.649Z,7.30
2022-08-29T17:30:48.285Z,5.40
2022-08-29T17:33:30.630Z,7.90
2022-08-29T17:36:01.388Z,7.20
2022-08-29T17:38:30.573Z,8.10
2022-08-29T17:41:02.253Z,10.60
2022-08-29T17:43:36.526Z,7.40
2022-08-29T17:46:05.274Z,7.50
2022-08-29T17:48:34.068Z,8.90
2022-08-29T17:51:03.618Z,6.20
2022-08-29T17:53:32.387Z,6.80
2022-08-29T17:56:12.205Z,9.20
2022-08-29T17:58:40.665Z,6.10
2022-08-29T18:01:15.996Z,8.40
2022-08-29T18:03:45.340Z,7.20
2022-08-29T18:06:14.829Z,7.90
2022-08-29T18:08:45.775Z,7.30
2022-08-29T18:11:17.905Z,7.70
2022-08-29T18:13:46.882Z,10.40
2022-08-29T18:16:15.620Z,8.50
2022-08-29T18:18:46.751Z,8.50
2022-08-29T18:21:18.435Z,8.80
2022-08-29T18:23:50.505Z,6.10
2022-08-29T18:26:19.038Z,8.00
2022-08-29T18:28:47.423Z,6.60
2022-08-29T18:31:18.626Z,8.40
2022-08-29T18:34:00.196Z,7.70
2022-08-29T18:36:31.306Z,7.00
2022-08-29T18:39:02.628Z,9.20
2022-08-29T18:41:31.495Z,9.30
2022-08-29T18:44:00.098Z,8.50
2022-08-29T18:46:33.495Z,6.80
2022-08-29T18:49:02.424Z,10.80
2022-08-29T18:51:32.446Z,7.80
2022-08-29T18:54:03.455Z,8.00
2022-08-29T18:56:32.346Z,8.30
2022-08-29T18:59:00.978Z,8.40
2022-08-29T19:01:31.674Z,6.60
2022-08-29T19:04:02.106Z,9.30
2022-08-29T19:06:30.919Z,6.80
2022-08-29T19:08:59.816Z,7.80
2022-08-29T19:11:28.659Z,8.80
2022-08-29T19:13:57.283Z,8.50
2022-08-29T19:16:26.085Z,9.10
2022-08-29T19:18:54.538Z,8.10
2022-08-29T19:21:23.531Z,7.80
2022-08-29T19:23:55.872Z,7.00
2022-08-29T19:26:30.863Z,7.10
2022-08-29T19:29:04.504Z,6.20
2022-08-29T19:31:33.265Z,7.30
2022-08-29T19:34:01.962Z,7.30
2022-08-29T19:36:30.420Z,8.00
2022-08-29T19:38:59.223Z,6.80
2022-08-29T19:41:27.989Z,8.20
2022-08-29T19:43:56.581Z,6.90
2022-08-29T19:46:31.762Z,7.80
2022-08-29T19:51:37.568Z,9.10
2022-08-29T19:54:06.993Z,7.00
2022-08-29T19:56:35.807Z,7.90
2022-08-29T19:59:11.343Z,9.20
2022-08-29T20:01:41.098Z,8.70
2022-08-29T20:04:09.560Z,7.80
2022-08-29T20:06:39.292Z,7.90
2022-08-29T20:09:11.586Z,8.20
2022-08-29T20:11:43.517Z,10.30
2022-08-29T20:14:14.200Z,10.30
2022-08-29T20:16:44.910Z,10.00
2022-08-29T20:19:13.466Z,12.20
2022-08-29T20:21:44.297Z,8.60
2022-08-29T20:24:15.779Z,12.40
2022-08-29T20:26:47.386Z,11.00
2022-08-29T20:29:16.710Z,9.60
2022-08-29T20:31:46.227Z,11.50
2022-08-29T20:34:15.463Z,9.20
2022-08-29T20:37:02.856Z,9.70
2022-08-29T20:39:31.367Z,8.00
2022-08-29T20:42:00.735Z,11.40
2022-08-29T20:44:37.012Z,9.60
2022-08-29T20:47:08.786Z,7.80
2022-08-29T20:49:42.268Z,7.60
2022-08-29T20:52:15.841Z,10.50
2022-08-29T20:54:46.197Z,8.80
2022-08-29T20:57:15.756Z,8.60
2022-08-29T20:59:44.244Z,8.40
2022-08-29T21:02:14.128Z,8.00
2022-08-29T21:05:00.737Z,7.10
2022-08-29T21:07:29.237Z,9.00
2022-08-29T21:09:58.232Z,7.70
2022-08-29T21:12:28.855Z,9.70
2022-08-29T21:14:57.338Z,14.10
2022-08-29T21:17:25.802Z,7.80
2022-08-29T21:19:54.289Z,8.80
2022-08-29T21:22:24.980Z,7.20
2022-08-29T21:24:55.479Z,8.00
2022-08-29T21:27:25.423Z,10.70
2022-08-29T21:29:56.358Z,7.30
2022-08-29T21:32:28.018Z,11.70
2022-08-29T21:34:56.583Z,8.50
2022-08-29T21:37:25.648Z,10.40
2022-08-29T21:39:54.465Z,8.50
2022-08-29T21:42:22.851Z,9.30
2022-08-29T21:44:54.588Z,8.30
2022-08-29T21:47:23.100Z,8.60
2022-08-29T21:49:51.770Z,8.80
2022-08-29T21:52:20.882Z,7.30
2022-08-29T21:54:53.671Z,7.60
2022-08-29T21:57:41.498Z,8.40
2022-08-29T22:00:13.228Z,8.80
2022-08-29T22:02:41.731Z,10.10
2022-08-29T22:05:10.449Z,9.80
2022-08-29T22:07:40.288Z,10.60
2022-08-29T22:10:11.163Z,9.30
2022-08-29T22:12:39.744Z,9.80
2022-08-29T22:15:28.181Z,8.20
2022-08-29T22:17:59.303Z,10.90
2022-08-29T22:20:28.038Z,9.90
2022-08-29T22:22:56.606Z,9.00
2022-08-29T22:25:25.220Z,9.30
2022-08-29T22:27:53.713Z,8.60
2022-08-29T22:30:22.450Z,10.90
2022-08-29T22:33:01.205Z,16.00
2022-08-29T22:35:30.387Z,8.40
2022-08-29T22:37:59.388Z,8.00
2022-08-29T22:40:28.734Z,9.50
2022-08-29T22:42:57.991Z,10.30
2022-08-29T22:45:26.485Z,8.50
2022-08-29T22:47:54.894Z,8.90
2022-08-29T22:50:24.815Z,10.10
2022-08-29T22:52:56.558Z,11.40
2022-08-29T22:57:53.921Z,10.70
2022-08-29T23:00:25.732Z,8.60
2022-08-29T23:02:54.459Z,9.40
2022-08-29T23:05:28.185Z,9.70
2022-08-29T23:07:56.616Z,11.70
2022-08-29T23:10:25.013Z,11.70
2022-08-29T23:12:53.439Z,14.70
2022-08-29T23:15:22.110Z,13.00
2022-08-29T23:17:50.634Z,14.10
2022-08-29T23:20:19.457Z,12.00
2022-08-29T23:22:48.613Z,14.60
2022-08-29T23:25:17.353Z,12.10
2022-08-29T23:27:45.804Z,10.50
2022-08-29T23:30:14.615Z,12.70
2022-08-29T23:32:43.055Z,10.40
2022-08-29T23:35:11.784Z,11.40
2022-08-29T23:37:40.536Z,10.30
2022-08-29T23:40:10.441Z,9.60
2022-08-29T23:42:38.893Z,9.70
2022-08-29T23:45:10.222Z,9.40
2022-08-29T23:47:38.600Z,9.00
2022-08-29T23:50:09.567Z,8.20
2022-08-29T23:52:37.968Z,11.90
2022-08-29T23:55:09.009Z,7.70
2022-08-29T23:57:38.170Z,8.90
